Time;durP1;ratioP1;P1;durP2;ratioP2;P2;SDS_P1;SDS_P2;PMS_P1;PMS_P2;Temp;Humidity;BMP_temperature;BMP_pressure;BME280_temperature;BME280_humidity;BME280_pressure;Samples;Min_cycle;Max_cycle;Signal;HPM_P1;HPM_P2
2024/04/05 00:01:57;;;;;;;20.70;3.60;;;;;;;9.64;100.00;69464.63;5090916;28;20047;-54
2024/04/05 00:04:24;;;;;;;15.05;3.47;;;;;;;9.63;100.00;69461.41;5090861;28;20040;-53
2024/04/05 00:06:51;;;;;;;23.45;4.72;;;;;;;9.66;100.00;69466.38;5090161;28;20495;-51
2024/04/05 00:09:18;;;;;;;13.77;3.08;;;;;;;9.63;100.00;69463.44;5092231;28;20036;-53
2024/04/05 00:11:44;;;;;;;20.80;4.38;;;;;;;9.64;100.00;69465.19;5073340;28;20085;-55
2024/04/05 00:14:11;;;;;;;22.02;4.13;;;;;;;9.63;100.00;69464.03;5092184;28;20411;-54
2024/04/05 00:16:38;;;;;;;18.45;4.00;;;;;;;9.69;100.00;69469.84;5093721;28;20157;-54
2024/04/05 00:19:05;;;;;;;21.23;3.72;;;;;;;9.67;100.00;69467.50;5093669;28;20498;-54
2024/04/05 00:21:32;;;;;;;19.98;3.63;;;;;;;9.70;100.00;69476.25;5093600;28;20052;-54
2024/04/05 00:24:00;;;;;;;22.75;4.22;;;;;;;9.69;100.00;69467.25;5089289;28;20044;-54
2024/04/05 00:26:27;;;;;;;21.38;4.18;;;;;;;9.70;100.00;69473.63;5090319;28;20036;-55
2024/04/05 00:28:54;;;;;;;25.80;4.47;;;;;;;9.79;100.00;69484.13;5090768;28;20059;-53
2024/04/05 00:31:20;;;;;;;18.42;4.32;;;;;;;9.85;100.00;69490.53;5090631;28;20051;-53
2024/04/05 00:33:48;;;;;;;18.25;3.53;;;;;;;9.83;100.00;69486.19;5090082;28;20052;-53
2024/04/05 00:36:15;;;;;;;19.63;3.92;;;;;;;9.84;100.00;69487.34;5092770;28;20036;-52
2024/04/05 00:38:42;;;;;;;21.95;4.20;;;;;;;9.86;100.00;69492.28;5093341;28;20048;-53
2024/04/05 00:41:08;;;;;;;18.42;3.75;;;;;;;9.92;100.00;69496.09;5075096;28;20052;-54
2024/04/05 00:43:36;;;;;;;26.05;4.57;;;;;;;9.95;100.00;69500.19;5090326;28;20052;-53
2024/04/05 00:46:05;;;;;;;21.15;3.90;;;;;;;9.99;100.00;69506.88;5072364;28;20051;-52
2024/04/05 00:48:34;;;;;;;18.98;4.20;;;;;;;9.96;100.00;69503.94;5090064;28;20453;-53
2024/04/05 00:51:05;;;;;;;20.88;4.05;;;;;;;9.96;100.00;69506.56;5088569;28;20691;-54
2024/04/05 00:53:35;;;;;;;19.15;3.25;;;;;;;10.00;100.00;69510.06;5089237;28;20051;-53
2024/04/05 00:56:02;;;;;;;18.98;4.30;;;;;;;10.00;100.00;69504.84;5089018;28;20058;-54
2024/04/05 00:58:29;;;;;;;24.10;4.43;;;;;;;10.01;100.00;69511.22;5088830;28;20067;-54
2024/04/05 01:00:56;;;;;;;21.77;3.85;;;;;;;10.05;100.00;69513.28;5089838;28;20051;-54
2024/04/05 01:03:23;;;;;;;25.77;4.32;;;;;;;10.10;100.00;69514.50;5089836;28;20528;-54
2024/04/05 01:05:49;;;;;;;20.33;3.55;;;;;;;10.06;100.00;69512.44;5089115;28;20138;-53
2024/04/05 01:08:18;;;;;;;19.83;4.03;;;;;;;10.09;100.00;69517.94;5088196;28;20044;-53
2024/04/05 01:10:44;;;;;;;16.35;3.47;;;;;;;10.06;100.00;69515.03;5088763;28;20058;-52
2024/04/05 01:13:14;;;;;;;22.65;4.13;;;;;;;10.09;100.00;69515.34;5089471;28;20845;-53
2024/04/05 01:15:41;;;;;;;21.17;3.92;;;;;;;10.10;100.00;69517.09;5072609;28;20048;-54
2024/04/05 01:18:09;;;;;;;21.63;4.40;;;;;;;10.12;100.00;69514.22;5074911;28;20056;-54
2024/04/05 01:20:36;;;;;;;19.25;4.72;;;;;;;10.13;100.00;69520.59;5089093;28;20052;-54
2024/04/05 01:23:05;;;;;;;17.15;3.28;;;;;;;10.15;100.00;69522.34;5088549;28;20372;-54
2024/04/05 01:25:33;;;;;;;17.83;3.72;;;;;;;10.15;100.00;69522.34;5090142;28;20040;-50
2024/04/05 01:28:06;;;;;;;24.30;4.30;;;;;;;10.15;100.00;69524.97;5092096;28;20453;-53
2024/04/05 01:30:33;;;;;;;23.40;3.75;;;;;;;10.20;100.00;69524.97;5092457;28;20475;-54
2024/04/05 01:33:01;;;;;;;26.67;4.05;;;;;;;10.24;100.00;69532.84;5075441;28;20040;-53
2024/04/05 01:35:29;;;;;;;21.85;4.15;;;;;;;10.22;100.00;69532.53;5090510;28;20047;-55
2024/04/05 01:37:56;;;;;;;20.52;3.65;;;;;;;10.24;100.00;69532.84;5088014;28;20415;-52
2024/04/05 01:40:23;;;;;;;20.23;3.55;;;;;;;10.23;100.00;69531.09;5088482;28;20048;-53
2024/04/05 01:42:52;;;;;;;19.63;4.30;;;;;;;10.24;100.00;69532.84;5089172;28;20055;-53
2024/04/05 01:45:18;;;;;;;23.10;4.22;;;;;;;10.25;100.00;69530.81;5088656;28;20515;-53
2024/04/05 01:47:46;;;;;;;20.33;3.78;;;;;;;10.25;100.00;69536.63;5071451;28;20113;-53
2024/04/05 01:50:13;;;;;;;17.75;3.53;;;;;;;10.27;100.00;69533.16;5088622;28;20130;-54
2024/04/05 01:52:40;;;;;;;19.13;4.15;;;;;;;10.29;100.00;69538.09;5087771;28;20051;-53
2024/04/05 01:55:07;;;;;;;23.58;4.45;;;;;;;10.28;100.00;69537.53;5088363;28;20040;-54
2024/04/05 01:57:35;;;;;;;21.25;3.45;;;;;;;10.28;100.00;69537.53;5088783;28;20073;-51
2024/04/05 02:00:04;;;;;;;23.17;3.90;;;;;;;10.30;100.00;69542.44;5071282;28;20052;-53
2024/04/05 02:02:31;;;;;;;21.02;3.97;;;;;;;10.30;100.00;69539.84;5089747;28;20503;-53
2024/04/05 02:04:58;;;;;;;24.63;3.80;;;;;;;10.30;100.00;69541.88;5091509;28;20043;-54
2024/04/05 02:07:26;;;;;;;20.05;3.72;;;;;;;10.30;100.00;69537.22;5088640;28;20048;-54
2024/04/05 02:09:53;;;;;;;17.52;3.45;;;;;;;10.29;100.00;69538.09;5087226;28;20543;-52
2024/04/05 02:12:22;;;;;;;20.27;4.30;;;;;;;10.27;100.00;69536.34;5091053;28;20047;-52
2024/04/05 02:14:48;;;;;;;19.70;3.95;;;;;;;10.28;100.00;69537.53;5088450;28;20047;-53
2024/04/05 02:17:16;;;;;;;22.75;4.40;;;;;;;10.29;100.00;69540.69;5089601;28;20407;-53
2024/04/05 02:19:42;;;;;;;20.92;4.28;;;;;;;10.34;100.00;69540.75;5091262;28;20058;-53
2024/04/05 02:22:10;;;;;;;25.77;4.55;;;;;;;10.30;100.00;69544.47;5091106;28;20043;-52
2024/04/05 02:24:37;;;;;;;17.73;3.67;;;;;;;10.27;100.00;69536.34;5090742;28;20529;-54
2024/04/05 02:27:04;;;;;;;23.45;3.75;;;;;;;10.24;100.00;69535.47;5088061;28;20055;-53
2024/04/05 02:29:31;;;;;;;24.60;4.28;;;;;;;10.25;100.00;69534.03;5088417;28;20048;-53
2024/04/05 02:31:58;;;;;;;20.48;3.90;;;;;;;10.23;100.00;69533.72;5089533;28;20434;-54
2024/04/05 02:34:25;;;;;;;21.33;4.13;;;;;;;10.21;100.00;69537.19;5073938;28;20074;-53
2024/04/05 02:36:52;;;;;;;20.33;3.88;;;;;;;10.21;100.00;69529.34;5090448;28;20448;-53
2024/04/05 02:39:19;;;;;;;24.02;4.28;;;;;;;10.21;100.00;69531.38;5090699;28;20075;-52
2024/04/05 02:41:46;;;;;;;25.42;4.30;;;;;;;10.19;100.00;69529.06;5091102;28;20040;-52
2024/04/05 02:44:13;;;;;;;18.40;4.05;;;;;;;10.19;100.00;69529.63;5090943;28;20111;-53
2024/04/05 02:46:43;;;;;;;22.88;4.47;;;;;;;10.18;100.00;69527.88;5090958;28;20075;-53
2024/04/05 02:49:11;;;;;;;15.35;3.45;;;;;;;10.19;100.00;69526.44;5090730;28;20040;-49
2024/04/05 02:51:39;;;;;;;18.63;3.22;;;;;;;10.17;100.00;69526.69;5087423;28;20044;-53
2024/04/05 02:54:06;;;;;;;19.52;3.90;;;;;;;10.17;100.00;69532.50;5086785;28;20047;-53
2024/04/05 02:56:33;;;;;;;25.23;3.88;;;;;;;10.17;100.00;69524.09;5087654;28;20125;-53
2024/04/05 02:59:00;;;;;;;21.35;3.95;;;;;;;10.15;100.00;69525.53;5087064;28;20056;-52
2024/04/05 03:01:28;;;;;;;22.27;3.63;;;;;;;10.15;100.00;69522.91;5089118;28;20040;-53
2024/04/05 03:03:54;;;;;;;21.60;4.00;;;;;;;10.14;100.00;69523.78;5090334;28;20055;-53
2024/04/05 03:06:21;;;;;;;21.00;3.85;;;;;;;10.12;100.00;69516.81;5086700;28;20042;-54
2024/04/05 03:08:48;;;;;;;17.70;3.55;;;;;;;10.11;100.00;69522.91;5087584;28;20101;-54
2024/04/05 03:11:16;;;;;;;20.00;3.97;;;;;;;10.13;100.00;69515.38;5090411;28;20097;-51
2024/04/05 03:13:42;;;;;;;20.08;3.75;;;;;;;10.11;100.00;69520.28;5090476;28;20055;-53
2024/04/05 03:16:09;;;;;;;19.85;3.65;;;;;;;10.09;100.00;69517.94;5090155;28;20042;-53
2024/04/05 03:18:35;;;;;;;21.70;3.72;;;;;;;10.07;100.00;69515.63;5090302;28;20048;-51
2024/04/05 03:21:02;;;;;;;22.38;3.65;;;;;;;10.08;100.00;69519.97;5089881;28;20044;-53
2024/04/05 03:23:29;;;;;;;20.02;3.53;;;;;;;10.07;100.00;69508.38;5090507;28;20089;-52
2024/04/05 03:25:57;;;;;;;19.67;3.95;;;;;;;10.05;100.00;69513.28;5090176;28;20036;-52
2024/04/05 03:28:23;;;;;;;17.83;4.05;;;;;;;10.04;100.00;69512.13;5090583;28;20363;-53
2024/04/05 03:30:52;;;;;;;24.45;4.38;;;;;;;10.05;100.00;69513.28;5090340;28;20071;-52
2024/04/05 03:33:19;;;;;;;20.15;3.80;;;;;;;10.09;100.00;69512.72;5087572;28;20080;-52
2024/04/05 03:35:46;;;;;;;18.48;4.13;;;;;;;10.07;100.00;69515.63;5087177;28;20042;-52
2024/04/05 03:38:13;;;;;;;20.65;3.90;;;;;;;10.09;100.00;69512.72;5090209;28;20048;-51
2024/04/05 03:40:42;;;;;;;20.85;3.72;;;;;;;10.07;100.00;69513.00;5090102;28;20044;-51
2024/04/05 03:43:09;;;;;;;19.60;4.13;;;;;;;10.09;100.00;69517.94;5088199;28;20051;-53
2024/04/05 03:45:36;;;;;;;18.73;4.60;;;;;;;10.08;100.00;69517.38;5087419;28;20521;-53
2024/04/05 03:48:03;;;;;;;20.05;3.95;;;;;;;10.11;100.00;69517.69;5089373;28;20044;-54
2024/04/05 03:50:30;;;;;;;26.30;4.85;;;;;;;10.12;100.00;69522.03;5090385;28;20063;-52
2024/04/05 03:52:56;;;;;;;19.45;3.83;;;;;;;10.15;100.00;69519.75;5088481;28;20044;-52
2024/04/05 03:55:23;;;;;;;21.80;4.78;;;;;;;10.19;100.00;69529.63;5086619;28;20051;-54
2024/04/05 03:57:52;;;;;;;20.70;4.07;;;;;;;10.21;100.00;69534.56;5086813;28;20086;-52
2024/04/05 04:00:22;;;;;;;21.50;4.60;;;;;;;10.20;100.00;69530.78;5089354;28;20072;-53
2024/04/05 04:02:51;;;;;;;21.52;3.90;;;;;;;10.23;100.00;69531.69;5070200;28;20059;-53
2024/04/05 04:05:18;;;;;;;14.75;3.83;;;;;;;10.24;100.00;69532.25;5086313;28;20048;-54
2024/04/05 04:07:44;;;;;;;21.77;4.15;;;;;;;10.27;100.00;69536.34;5085811;28;20102;-51
2024/04/05 04:10:12;;;;;;;18.85;4.20;;;;;;;10.28;100.00;69539.53;5085722;28;20442;-52
2024/04/05 04:12:38;;;;;;;22.67;5.32;;;;;;;10.34;100.00;69545.97;5069891;28;20040;-52
2024/04/05 04:15:06;;;;;;;16.10;4.20;;;;;;;10.34;100.00;69549.16;5086790;28;20044;-51
2024/04/05 04:17:34;;;;;;;18.75;4.43;;;;;;;10.35;100.00;69550.34;5087182;28;20533;-50
2024/04/05 04:20:04;;;;;;;19.38;4.18;;;;;;;10.37;100.00;69552.09;5089654;28;20062;-51
2024/04/05 04:22:30;;;;;;;19.17;4.20;;;;;;;10.41;100.00;69551.53;5089805;28;20042;-49
2024/04/05 04:24:57;;;;;;;16.67;3.60;;;;;;;10.43;100.00;69554.47;5089567;28;20056;-51
2024/04/05 04:27:23;;;;;;;22.60;4.45;;;;;;;10.43;100.00;69557.06;5073028;28;20533;-50
2024/04/05 04:29:50;;;;;;;22.35;4.63;;;;;;;10.46;100.00;69557.38;5089879;28;20507;-51
2024/04/05 04:32:16;;;;;;;15.60;3.75;;;;;;;10.45;100.00;69558.81;5090413;28;20075;-52
2024/04/05 04:34:45;;;;;;;22.98;4.28;;;;;;;10.49;100.00;69563.50;5076416;28;20060;-50
2024/04/05 04:37:11;;;;;;;23.13;3.67;;;;;;;10.49;100.00;69558.28;5090409;28;20044;-52
2024/04/05 04:39:39;;;;;;;22.08;4.18;;;;;;;10.50;100.00;69562.06;5089691;28;20056;-51
2024/04/05 04:42:06;;;;;;;20.55;4.07;;;;;;;10.52;100.00;69564.38;5089519;28;20048;-51
2024/04/05 04:44:33;;;;;;;16.95;3.47;;;;;;;10.52;100.00;69566.97;5090197;28;20513;-51
2024/04/05 04:47:01;;;;;;;22.48;5.22;;;;;;;10.51;100.00;69560.59;5089321;28;20052;-50
2024/04/05 04:49:28;;;;;;;20.38;4.00;;;;;;;10.54;100.00;69569.34;5090595;28;20040;-50
2024/04/05 04:51:55;;;;;;;18.42;4.20;;;;;;;10.52;100.00;69569.03;5091194;28;20044;-50
2024/04/05 04:54:23;;;;;;;20.10;4.30;;;;;;;10.48;100.00;69565.53;5093264;28;20048;-53
2024/04/05 04:56:49;;;;;;;18.25;4.85;;;;;;;10.52;100.00;69563.81;5092804;28;20047;-50
2024/04/05 04:59:16;;;;;;;21.98;5.50;;;;;;;10.51;100.00;69565.25;5092176;28;20056;-52
2024/04/05 05:01:42;;;;;;;18.45;6.05;;;;;;;10.49;100.00;69560.88;5090185;28;20039;-53
2024/04/05 05:04:09;;;;;;;24.40;5.15;;;;;;;10.48;100.00;69562.31;5089421;28;20051;-53
2024/04/05 05:06:35;;;;;;;22.23;5.05;;;;;;;10.47;100.00;69558.53;5071970;28;20047;-52
2024/04/05 05:09:04;;;;;;;21.92;5.05;;;;;;;10.48;100.00;69559.72;5088239;28;20498;-49
2024/04/05 05:11:31;;;;;;;16.40;4.60;;;;;;;10.49;100.00;69560.88;5089472;28;20522;-49
2024/04/05 05:13:58;;;;;;;24.17;4.80;;;;;;;10.48;100.00;69562.91;5072364;28;20079;-51
2024/04/05 05:16:24;;;;;;;20.92;5.72;;;;;;;10.48;100.00;69557.09;5089751;28;20047;-48
2024/04/05 05:18:51;;;;;;;20.23;4.75;;;;;;;10.49;100.00;69564.06;5088979;28;20510;-49
2024/04/05 05:21:17;;;;;;;20.33;4.93;;;;;;;10.55;100.00;69567.28;5088615;28;20106;-51
2024/04/05 05:23:45;;;;;;;24.38;5.00;;;;;;;10.54;100.00;69566.72;5088693;28;20097;-52
2024/04/05 05:26:12;;;;;;;20.10;4.90;;;;;;;10.61;100.00;69579.53;5088617;28;20459;-49
2024/04/05 05:28:39;;;;;;;17.25;4.65;;;;;;;10.59;100.00;69574.56;5092186;28;20506;-50
2024/04/05 05:31:05;;;;;;;19.27;4.68;;;;;;;10.59;100.00;69572.56;5092046;28;20040;-51
2024/04/05 05:33:32;;;;;;;21.13;5.53;;;;;;;10.61;100.00;69576.91;5075273;28;20411;-49
2024/04/05 05:35:58;;;;;;;21.40;5.13;;;;;;;10.63;100.00;69577.22;5091930;28;20048;-50
2024/04/05 05:38:26;;;;;;;20.95;5.88;;;;;;;10.65;100.00;69578.97;5091852;28;20054;-51
2024/04/05 05:40:53;;;;;;;18.17;5.30;;;;;;;10.66;100.00;69582.75;5088594;28;20044;-52
2024/04/05 05:43:22;;;;;;;17.88;5.22;;;;;;;10.70;100.00;69586.84;5089986;28;20044;-51
2024/04/05 05:45:48;;;;;;;20.38;5.30;;;;;;;10.72;100.00;69586.56;5089062;28;20040;-49
2024/04/05 05:48:15;;;;;;;18.00;4.15;;;;;;;10.74;100.00;69586.84;5087441;28;20514;-49
2024/04/05 05:50:41;;;;;;;25.02;5.25;;;;;;;10.79;100.00;69597.34;5091003;28;20040;-51
2024/04/05 05:53:09;;;;;;;18.52;5.35;;;;;;;10.79;100.00;69592.13;5091692;28;20072;-48
2024/04/05 05:55:35;;;;;;;25.05;5.60;;;;;;;10.82;100.00;69600.84;5074908;28;20055;-50
2024/04/05 05:58:02;;;;;;;20.63;5.80;;;;;;;10.85;100.00;69601.72;5091508;28;20052;-51
2024/04/05 06:00:30;;;;;;;24.70;5.82;;;;;;;10.91;100.00;69610.78;5091673;28;20067;-50
2024/04/05 06:02:57;;;;;;;17.67;6.43;;;;;;;10.96;100.00;69616.59;5091544;28;20047;-52
2024/04/05 06:05:23;;;;;;;19.90;5.85;;;;;;;10.97;100.00;69618.34;5088673;28;20048;-50
2024/04/05 06:07:52;;;;;;;17.92;4.90;;;;;;;11.04;100.00;69625.94;5070492;28;20059;-52
2024/04/05 06:10:19;;;;;;;16.75;4.28;;;;;;;11.04;100.00;69623.31;5086910;28;20051;-50
2024/04/05 06:12:46;;;;;;;18.65;4.45;;;;;;;11.10;100.00;69629.75;5089834;28;20052;-51
2024/04/05 06:15:12;;;;;;;19.42;4.68;;;;;;;11.13;100.00;69631.22;5091499;28;20498;-52
2024/04/05 06:17:40;;;;;;;16.42;4.15;;;;;;;11.15;100.00;69636.19;5088785;28;20390;-50
2024/04/05 06:20:10;;;;;;;13.80;4.07;;;;;;;11.24;100.00;69648.13;5088149;28;20538;-51
2024/04/05 06:22:38;;;;;;;18.33;4.90;;;;;;;11.25;100.00;69652.50;5074446;28;20439;-52
2024/04/05 06:25:04;;;;;;;18.08;3.85;;;;;;;11.32;100.00;69655.44;5091094;28;20427;-52
2024/04/05 06:27:31;;;;;;;14.45;4.43;;;;;;;11.40;100.00;69666.22;5091063;28;20036;-53
2024/04/05 06:29:58;;;;;;;15.00;3.92;;;;;;;11.41;100.00;69665.38;5091143;28;20036;-53
2024/04/05 06:32:25;;;;;;;19.70;4.72;;;;;;;11.45;100.00;69670.03;5091442;28;20044;-51
2024/04/05 06:34:52;;;;;;;17.05;4.28;;;;;;;11.49;100.00;69674.72;5091169;28;20499;-52
2024/04/05 06:37:20;;;;;;;15.57;4.93;;;;;;;11.57;100.00;69678.25;5073806;28;20051;-50
2024/04/05 06:39:46;;;;;;;20.83;5.25;;;;;;;11.59;100.00;69688.41;5090781;28;20135;-52
2024/04/05 06:42:14;;;;;;;18.67;5.50;;;;;;;11.66;100.00;69685.56;5090909;28;20082;-51
2024/04/05 06:44:40;;;;;;;18.45;4.90;;;;;;;11.70;100.00;69697.47;5090664;28;20051;-52
2024/04/05 06:47:08;;;;;;;20.70;4.00;;;;;;;11.70;100.00;69692.25;5090528;28;20036;-52
2024/04/05 06:49:34;;;;;;;13.85;3.90;;;;;;;11.73;100.00;69703.63;5087809;28;20050;-52
2024/04/05 06:52:05;;;;;;;15.63;4.00;;;;;;;11.78;100.00;69702.19;5087651;28;20463;-53
2024/04/05 06:54:32;;;;;;;15.77;3.80;;;;;;;11.91;100.00;69727.25;5090994;28;20051;-52
2024/04/05 06:56:59;;;;;;;11.23;3.35;;;;;;;11.93;100.00;69723.75;5089759;28;20536;-52
2024/04/05 06:59:25;;;;;;;15.40;3.78;;;;;;;12.02;100.00;69731.69;5088379;28;20054;-50
2024/04/05 07:01:53;;;;;;;16.30;4.05;;;;;;;12.06;100.00;69738.41;5070222;28;20047;-53
2024/04/05 07:04:23;;;;;;;13.52;3.58;;;;;;;12.10;100.00;69740.47;5088035;28;20039;-52
2024/04/05 07:06:50;;;;;;;12.60;3.45;;;;;;;12.15;100.00;69744.28;5086299;28;20096;-53
2024/04/05 07:09:20;;;;;;;14.05;3.72;;;;;;;12.23;100.00;69753.03;5086225;28;20491;-53
2024/04/05 07:11:48;;;;;;;14.00;4.00;;;;;;;12.26;100.00;69759.16;5089353;28;20058;-54
2024/04/05 07:14:17;;;;;;;14.68;3.70;;;;;;;12.35;100.00;69771.69;5090669;28;20067;-54
2024/04/05 07:16:43;;;;;;;17.05;3.40;;;;;;;12.38;100.00;69775.22;5073016;28;20040;-53
2024/04/05 07:19:11;;;;;;;12.65;3.53;;;;;;;12.46;100.00;69781.34;5086904;28;20044;-53
2024/04/05 07:21:37;;;;;;;15.48;3.22;;;;;;;12.48;100.00;69781.09;5086860;28;20046;-53
2024/04/05 07:24:05;;;;;;;11.68;3.63;;;;;;;12.57;100.00;69793.63;5086702;28;20495;-53
2024/04/05 07:26:33;;;;;;;12.10;2.55;;;;;;;12.60;100.00;69797.72;5089056;28;20043;-54
2024/04/05 07:29:01;;;;;;;12.43;3.10;;;;;;;12.63;100.00;69798.59;5090452;28;20102;-52
2024/04/05 07:31:27;;;;;;;9.57;3.35;;;;;;;12.70;100.00;69811.44;5090574;28;20040;-54
2024/04/05 07:33:54;;;;;;;12.52;3.08;;;;;;;12.71;100.00;69812.03;5072604;28;20059;-54
2024/04/05 07:36:20;;;;;;;12.90;2.70;;;;;;;12.71;100.00;69812.03;5086470;28;20531;-52
2024/04/05 07:38:50;;;;;;;13.75;2.72;;;;;;;12.73;100.00;69817.00;5088519;28;20483;-53
2024/04/05 07:41:17;;;;;;;13.23;3.03;;;;;;;12.76;100.00;69820.50;5090279;28;20445;-54
2024/04/05 07:43:46;;;;;;;10.18;2.47;;;;;;;12.75;100.00;69817.28;5087534;28;20101;-55
2024/04/05 07:46:12;;;;;;;12.18;3.25;;;;;;;12.79;100.00;69816.16;5069853;28;20048;-54
2024/04/05 07:48:39;;;;;;;13.98;3.10;;;;;;;12.82;100.00;69825.47;5087530;28;20079;-54
2024/04/05 07:51:05;;;;;;;11.13;2.47;;;;;;;12.80;100.00;69822.53;5086915;28;20098;-54
2024/04/05 07:53:33;;;;;;;8.98;2.30;;;;;;;12.80;100.00;69825.75;5089184;28;20391;-48
2024/04/05 07:56:00;;;;;;;10.57;2.88;;;;;;;12.85;100.00;69828.41;5090250;28;20075;-50
2024/04/05 07:58:27;;;;;;;10.68;2.78;;;;;;;12.93;100.00;69831.94;5072991;28;20508;-47
2024/04/05 08:00:54;;;;;;;12.68;3.05;;;;;;;12.95;100.00;69842.13;5089956;28;20051;-47
2024/04/05 08:03:22;;;;;;;13.65;2.90;;;;;;;12.98;100.00;69843.03;5089648;28;20048;-49
2024/04/05 08:05:48;;;;;;;9.48;3.20;;;;;;;12.98;100.00;69838.38;5089864;28;20100;-48
2024/04/05 08:08:15;;;;;;;17.17;4.32;;;;;;;12.99;100.00;69841.56;5092121;28;20055;-47
2024/04/05 08:10:42;;;;;;;15.43;3.63;;;;;;;12.98;100.00;69840.97;5093722;28;20085;-49
2024/04/05 08:13:09;;;;;;;11.30;3.30;;;;;;;13.01;100.00;69844.47;5093622;28;20051;-48
2024/04/05 08:15:36;;;;;;;12.15;3.10;;;;;;;13.01;100.00;69846.53;5093785;28;20059;-47
2024/04/05 08:18:05;;;;;;;11.07;2.95;;;;;;;13.04;100.00;69852.06;5093661;28;20441;-48
2024/04/05 08:20:31;;;;;;;11.45;2.90;;;;;;;13.03;100.00;69843.63;5093712;28;20462;-48
2024/04/05 08:22:58;;;;;;;9.60;2.58;;;;;;;13.07;100.00;69847.72;5093644;28;20494;-49
2024/04/05 08:25:25;;;;;;;12.77;3.88;;;;;;;13.09;100.00;69850.03;5093668;28;20046;-49
2024/04/05 08:27:52;;;;;;;10.32;2.97;;;;;;;13.06;100.00;69847.13;5093354;28;20410;-52
2024/04/05 08:30:19;;;;;;;7.43;2.47;;;;;;;13.08;100.00;69851.50;5093511;28;20395;-51
2024/04/05 08:32:46;;;;;;;12.70;2.45;;;;;;;13.06;100.00;69849.16;5093418;28;20040;-48
2024/04/05 08:35:13;;;;;;;10.05;2.85;;;;;;;13.10;100.00;69859.06;5093429;28;20459;-50
2024/04/05 08:37:45;;;;;;;10.52;2.55;;;;;;;13.07;100.00;69852.97;5092686;28;20038;-52
2024/04/05 08:40:12;;;;;;;8.65;2.85;;;;;;;13.02;100.00;69845.09;5071815;28;20094;-50
2024/04/05 08:42:39;;;;;;;10.95;2.97;;;;;;;13.03;100.00;69848.84;5091135;28;20070;-50
2024/04/05 08:45:06;;;;;;;9.93;2.47;;;;;;;13.00;100.00;69845.94;5092959;28;20048;-52
2024/04/05 08:47:34;;;;;;;9.02;2.65;;;;;;;12.99;100.00;69844.19;5092792;28;20043;-52
2024/04/05 08:50:03;;;;;;;8.13;2.63;;;;;;;12.98;100.00;69843.59;5093197;28;20056;-54
2024/04/05 08:52:31;;;;;;;12.65;3.05;;;;;;;12.97;100.00;69842.44;5088880;28;20044;-54
2024/04/05 08:54:59;;;;;;;11.85;2.92;;;;;;;12.99;100.00;69844.19;5089693;28;20126;-53
2024/04/05 08:57:30;;;;;;;10.48;3.00;;;;;;;12.99;100.00;69838.94;5092700;28;20043;-54
2024/04/05 08:59:57;;;;;;;8.82;3.00;;;;;;;12.99;100.00;69844.78;5092386;28;20052;-54
2024/04/05 09:02:27;;;;;;;11.85;3.15;;;;;;;13.04;100.00;69847.41;5090332;28;20084;-51
2024/04/05 09:04:53;;;;;;;7.85;2.67;;;;;;;13.08;100.00;69848.88;5089478;28;20444;-54
2024/04/05 09:07:21;;;;;;;11.77;3.20;;;;;;;13.10;100.00;69859.06;5088367;28;20059;-54
2024/04/05 09:09:48;;;;;;;11.50;2.78;;;;;;;13.12;100.00;69856.19;5073287;28;20419;-52
2024/04/05 09:12:21;;;;;;;12.27;2.90;;;;;;;13.19;100.00;69867.56;5092746;28;20044;-54
2024/04/05 09:14:57;;;;;;;12.52;2.92;;;;;;;13.16;100.00;69863.47;5092634;28;20462;-54
2024/04/05 09:17:24;;;;;;;9.27;2.70;;;;;;;13.13;100.00;69857.94;5092607;28;20036;-55
2024/04/05 09:20:01;;;;;;;9.90;2.80;;;;;;;13.14;100.00;69856.50;5091534;28;20040;-51
2024/04/05 09:22:28;;;;;;;10.63;3.20;;;;;;;13.14;100.00;69861.72;5090617;28;20056;-55
2024/04/05 09:25:00;;;;;;;13.55;2.60;;;;;;;13.17;100.00;69862.63;5088460;28;20098;-55
2024/04/05 09:27:27;;;;;;;12.43;2.65;;;;;;;13.18;100.00;69868.44;5091547;28;20047;-55
2024/04/05 09:30:00;;;;;;;8.02;2.55;;;;;;;13.13;100.00;69860.56;5089621;28;20055;-55
2024/04/05 09:32:27;;;;;;;7.30;2.40;;;;;;;13.12;100.00;69862.00;5089665;28;20044;-54
2024/04/05 09:34:56;;;;;;;9.52;2.63;;;;;;;13.11;100.00;69852.97;5092182;28;20491;-54
2024/04/05 09:37:25;;;;;;;11.27;2.20;;;;;;;13.11;100.00;69852.41;5092267;28;20036;-55
2024/04/05 09:39:52;;;;;;;8.25;2.03;;;;;;;13.08;100.00;69851.50;5092242;28;20755;-54
2024/04/05 09:42:21;;;;;;;9.43;2.20;;;;;;;13.12;100.00;69854.16;5089586;28;20101;-54
2024/04/05 09:44:50;;;;;;;9.68;2.17;;;;;;;13.12;100.00;69856.19;5088613;28;20054;-53
2024/04/05 09:47:19;;;;;;;7.50;2.10;;;;;;;13.13;100.00;69857.94;5090032;28;20040;-53
2024/04/05 09:49:46;;;;;;;9.27;2.20;;;;;;;13.13;100.00;69860.56;5091945;28;20405;-53
2024/04/05 09:52:16;;;;;;;9.18;2.33;;;;;;;13.12;100.00;69858.81;5092030;28;20089;-54
2024/04/05 09:54:45;;;;;;;7.85;2.45;;;;;;;13.13;100.00;69860.56;5092018;28;20044;-51
2024/04/05 09:57:13;;;;;;;14.85;2.80;;;;;;;13.11;100.00;69852.41;5091742;28;20032;-52
2024/04/05 09:59:43;;;;;;;8.80;2.30;;;;;;;13.11;100.00;69860.25;5091421;28;20052;-54
2024/04/05 10:02:11;;;;;;;7.68;2.50;;;;;;;13.10;100.00;69853.84;5091627;28;20039;-55
2024/04/05 10:04:38;;;;;;;8.80;2.17;;;;;;;13.11;100.00;69855.59;5091574;28;20040;-55
2024/04/05 10:07:06;;;;;;;7.75;2.25;;;;;;;13.11;100.00;69858.22;5087600;28;20043;-54
2024/04/05 10:09:34;;;;;;;9.80;2.40;;;;;;;13.11;100.00;69852.97;5088213;28;20463;-52
2024/04/05 10:12:12;;;;;;;9.35;2.90;;;;;;;13.19;100.00;69861.75;5091799;28;20048;-54
2024/04/05 10:14:39;;;;;;;8.35;2.58;;;;;;;13.19;100.00;69867.00;5091102;28;20046;-53
2024/04/05 10:17:08;;;;;;;11.20;2.72;;;;;;;13.23;100.00;69869.03;5091275;28;20399;-54
2024/04/05 10:19:36;;;;;;;10.48;2.47;;;;;;;13.31;100.00;69880.44;5088678;28;20437;-54
2024/04/05 10:22:04;;;;;;;8.02;2.40;;;;;;;13.39;100.00;69889.22;5086914;28;20065;-51
2024/04/05 10:24:31;;;;;;;7.63;2.67;;;;;;;13.47;100.00;69895.97;5091291;28;20050;-55
2024/04/05 10:26:59;;;;;;;8.73;2.53;;;;;;;13.57;100.00;69909.72;5091171;28;20040;-54
2024/04/05 10:29:25;;;;;;;8.55;2.53;;;;;;;13.64;100.00;69912.66;5091244;28;20399;-53
2024/04/05 10:32:01;;;;;;;9.35;3.00;;;;;;;13.75;100.00;69930.19;5073907;28;20048;-55
2024/04/05 10:34:31;;;;;;;8.80;2.70;;;;;;;13.82;100.00;69933.69;5090955;28;20816;-54
2024/04/05 10:36:58;;;;;;;6.60;2.42;;;;;;;13.90;100.00;69947.72;5086667;28;20052;-54
2024/04/05 10:39:25;;;;;;;6.57;2.05;;;;;;;13.94;100.00;69949.78;5086602;28;20047;-54
2024/04/05 10:41:53;;;;;;;10.20;2.13;;;;;;;13.96;100.00;69951.53;5087583;28;20490;-53
2024/04/05 10:44:19;;;;;;;6.55;2.20;;;;;;;14.02;100.00;69961.75;5089583;28;20069;-54
2024/04/05 10:46:48;;;;;;;8.07;2.47;;;;;;;14.10;100.00;69969.97;5090785;28;20058;-53
2024/04/05 10:49:14;;;;;;;9.07;2.58;;;;;;;14.14;100.00;69975.22;5090672;28;20135;-53
2024/04/05 10:51:43;;;;;;;11.13;2.95;;;;;;;14.24;100.00;69986.34;5091073;28;20044;-53
2024/04/05 10:54:11;;;;;;;10.68;2.38;;;;;;;14.34;100.00;69992.81;5089211;28;20050;-54
2024/04/05 10:56:41;;;;;;;9.68;2.67;;;;;;;14.44;100.00;70008.56;5087750;28;20048;-55
2024/04/05 10:59:07;;;;;;;9.50;2.65;;;;;;;14.53;100.00;70019.72;5089213;28;20511;-54
2024/04/05 11:01:36;;;;;;;8.25;3.25;;;;;;;14.60;100.00;70021.47;5087543;28;20048;-55
2024/04/05 11:04:03;;;;;;;6.88;2.47;;;;;;;14.65;100.00;70027.34;5087208;28;20048;-55
2024/04/05 11:06:30;;;;;;;10.20;2.70;;;;;;;14.67;100.00;70035.53;5090454;28;20056;-54
2024/04/05 11:08:58;;;;;;;10.05;2.70;;;;;;;14.69;100.00;70037.88;5071920;28;20138;-53
2024/04/05 11:11:26;;;;;;;10.07;2.70;;;;;;;14.71;100.00;70031.75;5070196;28;20056;-54
2024/04/05 11:14:00;;;;;;;7.28;2.40;;;;;;;14.71;100.00;70039.63;5087357;28;20051;-53
2024/04/05 11:16:28;;;;;;;7.75;2.45;;;;;;;14.70;100.00;70039.03;5087001;28;20054;-53
2024/04/05 11:18:54;;;;;;;10.57;2.35;;;;;;;14.75;100.00;70043.72;5086588;28;20085;-53
2024/04/05 11:21:22;;;;;;;6.63;2.15;;;;;;;14.78;100.00;70047.22;5086657;28;20040;-55